createdAt,value
2017-01-18T00:00:28.973Z,17.95
2017-01-18T00:01:38.442Z,17.84
2017-01-18T00:02:48.679Z,17.93
2017-01-18T00:03:58.143Z,17.89
2017-01-18T00:05:06.843Z,18.02
2017-01-18T00:06:16.306Z,17.95
2017-01-18T00:07:25.378Z,17.92
2017-01-18T00:08:34.070Z,17.92
2017-01-18T00:09:43.135Z,18
2017-01-18T00:10:52.208Z,17.86
2017-01-18T00:12:01.669Z,17.9
2017-01-18T00:13:11.129Z,17.92
2017-01-18T00:14:20.218Z,17.97
2017-01-18T00:15:29.283Z,17.93
2017-01-18T00:16:38.351Z,17.97
2017-01-18T00:17:48.207Z,17.9
2017-01-18T00:18:57.317Z,17.92
2017-01-18T00:20:06.778Z,17.89
2017-01-18T00:21:15.855Z,17.9
2017-01-18T00:22:24.928Z,17.92
2017-01-18T00:23:34.002Z,17.9
2017-01-18T00:24:42.694Z,17.92
2017-01-18T00:25:51.385Z,17.92
2017-01-18T00:27:00.084Z,17.97
2017-01-18T00:28:08.778Z,17.92
2017-01-18T00:29:18.240Z,17.92
2017-01-18T00:30:27.702Z,17.93
2017-01-18T00:31:36.786Z,17.9
2017-01-18T00:32:46.636Z,17.96
2017-01-18T00:33:55.321Z,17.92
2017-01-18T00:35:04.397Z,17.89
2017-01-18T00:36:14.011Z,17.9
2017-01-18T00:37:23.504Z,17.96
2017-01-18T00:38:32.214Z,17.93
2017-01-18T00:39:40.910Z,17.9
2017-01-18T00:40:49.595Z,17.92
2017-01-18T00:41:58.267Z,17.87
2017-01-18T00:43:07.345Z,17.96
2017-01-18T00:44:17.206Z,17.96
2017-01-18T00:45:26.283Z,17.9
2017-01-18T00:46:35.745Z,17.95
2017-01-18T00:47:44.827Z,17.92
2017-01-18T00:48:53.891Z,17.9
2017-01-18T00:50:02.572Z,17.89
2017-01-18T00:51:11.249Z,17.99
2017-01-18T00:52:20.330Z,17.82
2017-01-18T00:53:29.391Z,17.87
2017-01-18T00:54:38.487Z,17.86
2017-01-18T00:55:47.562Z,17.86
2017-01-18T00:56:56.239Z,17.9
2017-01-18T00:58:05.700Z,17.89
2017-01-18T00:59:14.381Z,17.89
2017-01-18T01:00:23.067Z,17.96
2017-01-18T01:01:31.743Z,17.86
2017-01-18T01:02:40.812Z,17.82
2017-01-18T01:03:49.490Z,17.93
2017-01-18T01:04:58.167Z,17.87
2017-01-18T01:06:06.841Z,17.93
2017-01-18T01:07:15.900Z,17.92
2017-01-18T01:08:24.585Z,17.87
2017-01-18T01:09:33.651Z,17.86
2017-01-18T01:10:43.101Z,17.84
2017-01-18T01:11:52.561Z,17.89
2017-01-18T01:13:02.038Z,17.9
2017-01-18T01:14:10.720Z,17.87
2017-01-18T01:15:19.394Z,17.86
2017-01-18T01:16:28.095Z,17.9
2017-01-18T01:17:37.162Z,17.89
2017-01-18T01:18:45.911Z,17.89
2017-01-18T01:19:54.581Z,17.86
2017-01-18T01:21:03.261Z,17.81
2017-01-18T01:22:12.722Z,17.86
2017-01-18T01:23:21.410Z,17.84
2017-01-18T01:24:30.867Z,17.89
2017-01-18T01:25:39.557Z,17.84
2017-01-18T01:26:48.262Z,17.82
2017-01-18T01:27:57.717Z,17.86
2017-01-18T01:29:06.414Z,17.79
2017-01-18T01:30:15.087Z,17.82
2017-01-18T01:31:23.761Z,17.84
2017-01-18T01:32:33.234Z,17.87
2017-01-18T01:33:42.307Z,17.82
2017-01-18T01:34:51.760Z,17.82
2017-01-18T01:36:01.230Z,17.81
2017-01-18T01:37:11.477Z,17.82
2017-01-18T01:38:20.555Z,17.82
2017-01-18T01:39:29.328Z,17.84
2017-01-18T01:40:38.409Z,17.81
2017-01-18T01:41:47.928Z,17.82
2017-01-18T01:42:57.454Z,17.87
2017-01-18T01:44:06.527Z,17.82
2017-01-18T01:45:15.609Z,17.78
2017-01-18T01:46:24.683Z,17.74
2017-01-18T01:47:33.746Z,17.77
2017-01-18T01:48:42.817Z,17.87
2017-01-18T01:49:51.885Z,17.86
2017-01-18T01:51:00.957Z,17.84
2017-01-18T01:52:10.034Z,17.87
2017-01-18T01:53:18.727Z,17.86
2017-01-18T01:54:28.188Z,17.87
2017-01-18T01:55:37.645Z,17.81
2017-01-18T01:56:47.116Z,17.82
2017-01-18T01:57:56.209Z,17.87
2017-01-18T01:59:05.295Z,17.77
2017-01-18T02:00:14.380Z,17.78
2017-01-18T02:01:23.835Z,17.74
2017-01-18T02:02:32.508Z,17.77
2017-01-18T02:03:41.203Z,17.75
2017-01-18T02:04:50.272Z,17.72
2017-01-18T02:05:59.731Z,17.81
2017-01-18T02:07:08.813Z,17.72
2017-01-18T02:08:18.284Z,17.75
2017-01-18T02:09:27.338Z,17.74
2017-01-18T02:10:36.018Z,17.74
2017-01-18T02:11:44.701Z,17.72
2017-01-18T02:12:53.381Z,17.77
2017-01-18T02:14:02.504Z,17.78
2017-01-18T02:15:11.995Z,17.75
2017-01-18T02:16:21.473Z,17.74
2017-01-18T02:17:30.162Z,17.72
2017-01-18T02:18:39.228Z,17.74
2017-01-18T02:19:48.730Z,17.75
2017-01-18T02:20:58.186Z,17.75
2017-01-18T02:22:07.248Z,17.75
2017-01-18T02:23:16.309Z,17.77
2017-01-18T02:24:25.786Z,17.75
2017-01-18T02:25:34.854Z,17.7
2017-01-18T02:26:44.362Z,17.72
2017-01-18T02:27:53.819Z,17.71
2017-01-18T02:29:02.908Z,17.77
2017-01-18T02:30:12.403Z,17.68
2017-01-18T02:31:21.502Z,17.7
2017-01-18T02:32:30.573Z,17.74
2017-01-18T02:33:40.413Z,17.66
2017-01-18T02:34:49.136Z,17.66
2017-01-18T02:35:57.813Z,17.64
2017-01-18T02:37:06.514Z,17.7
2017-01-18T02:38:15.571Z,17.75
2017-01-18T02:39:24.284Z,17.7
2017-01-18T02:40:32.967Z,17.74
2017-01-18T02:41:41.641Z,17.72
2017-01-18T02:42:50.723Z,17.72
2017-01-18T02:43:59.434Z,17.71
2017-01-18T02:45:08.509Z,17.7
2017-01-18T02:46:17.572Z,17.7
2017-01-18T02:47:27.040Z,17.68
2017-01-18T02:48:35.724Z,17.62
2017-01-18T02:49:44.406Z,17.59
2017-01-18T02:50:53.088Z,17.68
2017-01-18T02:52:02.561Z,17.63
2017-01-18T02:53:11.245Z,17.63
2017-01-18T02:54:21.490Z,17.66
2017-01-18T02:55:30.558Z,17.63
2017-01-18T02:56:39.634Z,17.64
2017-01-18T02:57:48.323Z,17.64
2017-01-18T02:58:57.392Z,17.63
2017-01-18T03:00:06.084Z,17.68
2017-01-18T03:01:15.551Z,17.64
2017-01-18T03:02:24.632Z,17.64
2017-01-18T03:03:33.690Z,17.62
2017-01-18T03:04:43.193Z,17.68
2017-01-18T03:05:52.269Z,17.66
2017-01-18T03:07:01.335Z,17.68
2017-01-18T03:08:10.410Z,17.7
2017-01-18T03:09:19.117Z,17.55
2017-01-18T03:10:28.970Z,17.66
2017-01-18T03:11:38.454Z,17.62
2017-01-18T03:12:47.906Z,17.59
2017-01-18T03:13:56.991Z,17.56
2017-01-18T03:15:06.078Z,17.54
2017-01-18T03:16:15.153Z,17.52
2017-01-18T03:17:24.606Z,17.59
2017-01-18T03:18:33.304Z,17.52
2017-01-18T03:19:42.412Z,17.59
2017-01-18T03:20:51.497Z,17.54
2017-01-18T03:22:00.174Z,17.55
2017-01-18T03:23:09.280Z,17.54
2017-01-18T03:24:18.350Z,17.54
2017-01-18T03:25:27.424Z,17.63
2017-01-18T03:26:36.876Z,17.55
2017-01-18T03:27:46.333Z,17.62
2017-01-18T03:28:55.015Z,17.55
2017-01-18T03:30:04.084Z,17.55
2017-01-18T03:31:13.174Z,17.54
2017-01-18T03:32:22.633Z,17.56
2017-01-18T03:33:31.708Z,17.62
2017-01-18T03:34:40.789Z,17.56
2017-01-18T03:35:49.482Z,17.52
2017-01-18T03:36:58.164Z,17.59
2017-01-18T03:38:07.239Z,17.55
2017-01-18T03:39:16.347Z,17.55
2017-01-18T03:40:25.429Z,17.62
2017-01-18T03:41:34.123Z,17.56
2017-01-18T03:42:42.826Z,17.62
2017-01-18T03:43:52.314Z,17.54
2017-01-18T03:45:01.412Z,17.44
2017-01-18T03:46:10.098Z,17.59
2017-01-18T03:47:18.800Z,17.56
2017-01-18T03:48:27.899Z,17.54
2017-01-18T03:49:37.371Z,17.51
2017-01-18T03:50:46.855Z,17.58
2017-01-18T03:51:55.923Z,17.48
2017-01-18T03:53:05.777Z,17.49
2017-01-18T03:54:15.239Z,17.49
2017-01-18T03:55:23.926Z,17.49
2017-01-18T03:56:33.013Z,17.48
2017-01-18T03:57:42.490Z,17.58
2017-01-18T03:58:51.164Z,17.49
2017-01-18T04:00:00.644Z,17.58
2017-01-18T04:01:10.108Z,17.51
2017-01-18T04:02:19.203Z,17.48
2017-01-18T04:03:28.661Z,17.49
2017-01-18T04:04:38.119Z,17.51
2017-01-18T04:05:46.801Z,17.48
2017-01-18T04:06:55.890Z,17.49
2017-01-18T04:08:04.959Z,17.46
2017-01-18T04:09:14.032Z,17.46
2017-01-18T04:10:23.102Z,17.55
2017-01-18T04:11:32.947Z,17.55
2017-01-18T04:12:41.624Z,17.41
2017-01-18T04:13:50.318Z,17.48
2017-01-18T04:14:59.790Z,17.41
2017-01-18T04:16:08.876Z,17.49
2017-01-18T04:17:17.549Z,17.55
2017-01-18T04:18:26.228Z,17.51
2017-01-18T04:19:35.695Z,17.55
2017-01-18T04:20:44.768Z,17.44
2017-01-18T04:21:54.242Z,17.52
2017-01-18T04:23:03.317Z,17.46
2017-01-18T04:24:12.008Z,17.46
2017-01-18T04:25:20.698Z,17.48
2017-01-18T04:26:29.375Z,17.52
2017-01-18T04:27:38.841Z,17.58
2017-01-18T04:28:48.295Z,17.52
2017-01-18T04:29:56.974Z,17.48
2017-01-18T04:31:05.669Z,17.54
2017-01-18T04:32:14.749Z,17.46
2017-01-18T04:33:24.227Z,17.52
2017-01-18T04:34:32.925Z,17.58
2017-01-18T04:35:42.000Z,17.52
2017-01-18T04:36:50.694Z,17.54
2017-01-18T04:38:00.142Z,17.43
2017-01-18T04:39:10.010Z,17.43
2017-01-18T04:40:19.469Z,17.41
2017-01-18T04:41:28.555Z,17.48
2017-01-18T04:42:37.257Z,17.48
2017-01-18T04:43:45.954Z,17.48
2017-01-18T04:44:54.646Z,17.52
2017-01-18T04:46:03.330Z,17.51
2017-01-18T04:47:12.399Z,17.49
2017-01-18T04:48:21.478Z,17.49
2017-01-18T04:49:30.538Z,17.48
2017-01-18T04:50:39.601Z,17.48
2017-01-18T04:51:48.279Z,17.48
2017-01-18T04:52:57.725Z,17.52
2017-01-18T04:54:07.568Z,17.51
2017-01-18T04:55:16.643Z,17.46
2017-01-18T04:56:25.719Z,17.51
2017-01-18T04:57:34.420Z,17.44
2017-01-18T04:58:43.492Z,17.59
2017-01-18T04:59:52.564Z,17.56
2017-01-18T05:01:01.237Z,17.64
2017-01-18T05:02:10.305Z,17.68
2017-01-18T05:03:19.755Z,17.79
2017-01-18T05:04:29.226Z,17.84
2017-01-18T05:05:39.077Z,17.92
2017-01-18T05:06:48.641Z,17.96
2017-01-18T05:07:58.892Z,18.05
2017-01-18T05:09:07.991Z,18.14
2017-01-18T05:10:17.461Z,18.17
2017-01-18T05:11:26.943Z,18.2
2017-01-18T05:12:36.013Z,18.3
2017-01-18T05:13:45.386Z,18.33
2017-01-18T05:14:54.452Z,18.39
2017-01-18T05:16:03.136Z,18.5
2017-01-18T05:17:12.589Z,18.5
2017-01-18T05:18:21.665Z,18.57
2017-01-18T05:19:30.344Z,18.65
2017-01-18T05:20:39.802Z,18.73
2017-01-18T05:21:48.871Z,18.7
2017-01-18T05:22:57.965Z,18.76
2017-01-18T05:24:07.062Z,18.81
2017-01-18T05:25:16.146Z,18.82
2017-01-18T05:26:24.827Z,18.91
2017-01-18T05:27:33.891Z,18.94
2017-01-18T05:28:42.962Z,18.98
2017-01-18T05:29:51.645Z,18.99
2017-01-18T05:31:00.715Z,18.95
2017-01-18T05:32:09.784Z,18.99
2017-01-18T05:33:18.865Z,19.11
2017-01-18T05:34:28.328Z,19.21
2017-01-18T05:35:37.425Z,19.22
2017-01-18T05:36:46.912Z,19.23
2017-01-18T05:37:55.591Z,19.28
2017-01-18T05:39:04.677Z,19.36
2017-01-18T05:40:14.138Z,19.37
2017-01-18T05:41:23.010Z,19.4
2017-01-18T05:42:32.077Z,19.4
2017-01-18T05:43:41.150Z,19.44
2017-01-18T05:44:50.226Z,19.47
2017-01-18T05:45:59.307Z,19.47
2017-01-18T05:47:08.376Z,19.43
2017-01-18T05:48:17.055Z,19.59
2017-01-18T05:49:26.175Z,19.48
2017-01-18T05:50:35.652Z,19.59
2017-01-18T05:51:44.339Z,19.61
2017-01-18T05:52:53.411Z,19.54
2017-01-18T05:54:02.553Z,19.66
2017-01-18T05:55:12.023Z,19.65
2017-01-18T05:56:21.888Z,19.63
2017-01-18T05:57:30.582Z,19.65
2017-01-18T05:58:39.709Z,19.76
2017-01-18T05:59:48.778Z,19.73
2017-01-18T06:00:57.854Z,19.78
2017-01-18T06:02:06.548Z,19.74
2017-01-18T06:03:15.620Z,19.81
2017-01-18T06:04:25.889Z,19.87
2017-01-18T06:05:34.604Z,19.83
2017-01-18T06:06:43.671Z,19.87
2017-01-18T06:07:52.354Z,19.94
2017-01-18T06:09:01.823Z,19.92
2017-01-18T06:10:10.512Z,19.98
2017-01-18T06:11:19.594Z,19.99
2017-01-18T06:12:28.300Z,19.99
2017-01-18T06:13:37.437Z,20.01
2017-01-18T06:14:46.130Z,20.03
2017-01-18T06:15:54.903Z,20.02
2017-01-18T06:17:03.613Z,20.05
2017-01-18T06:18:12.310Z,20.13
2017-01-18T06:19:21.423Z,20.08
2017-01-18T06:20:30.120Z,20.11
2017-01-18T06:21:39.274Z,20.24
2017-01-18T06:22:48.820Z,20.17
2017-01-18T06:23:57.923Z,20.13
2017-01-18T06:25:06.994Z,20.29
2017-01-18T06:26:15.705Z,20.28
2017-01-18T06:27:24.780Z,20.31
2017-01-18T06:28:34.236Z,20.35
2017-01-18T06:29:42.921Z,20.42
2017-01-18T06:30:51.995Z,20.43
2017-01-18T06:32:00.707Z,20.58
2017-01-18T06:33:10.561Z,20.52
2017-01-18T06:34:19.642Z,20.42
2017-01-18T06:35:28.757Z,20.64
2017-01-18T06:36:37.869Z,20.58
2017-01-18T06:37:46.574Z,20.67
2017-01-18T06:38:55.268Z,20.73
2017-01-18T06:40:03.977Z,20.74
2017-01-18T06:41:13.091Z,20.73
2017-01-18T06:42:22.186Z,20.67
2017-01-18T06:43:30.965Z,20.7
2017-01-18T06:44:40.822Z,20.77
2017-01-18T06:45:49.964Z,20.85
2017-01-18T06:46:59.081Z,20.82
2017-01-18T06:48:07.829Z,20.79
2017-01-18T06:49:16.993Z,20.77
2017-01-18T06:50:26.465Z,20.8
2017-01-18T06:51:35.961Z,20.8
2017-01-18T06:52:45.051Z,20.85
2017-01-18T06:53:53.742Z,20.88
2017-01-18T06:55:02.477Z,20.88
2017-01-18T06:56:11.478Z,20.88
2017-01-18T06:57:20.205Z,20.87
2017-01-18T06:58:29.366Z,20.85
2017-01-18T06:59:38.047Z,20.89
2017-01-18T07:00:48.349Z,20.85
2017-01-18T07:01:57.536Z,20.79
2017-01-18T07:03:06.274Z,20.79
2017-01-18T07:04:14.972Z,20.85
2017-01-18T07:05:23.691Z,20.82
2017-01-18T07:06:32.770Z,20.77
2017-01-18T07:07:42.015Z,20.8
2017-01-18T07:08:50.744Z,20.7
2017-01-18T07:09:59.842Z,20.67
2017-01-18T07:11:08.959Z,20.69
2017-01-18T07:12:18.077Z,20.73
2017-01-18T07:13:27.146Z,20.64
2017-01-18T07:14:35.846Z,20.62
2017-01-18T07:15:44.543Z,20.57
2017-01-18T07:16:54.029Z,20.51
2017-01-18T07:18:03.514Z,20.41
2017-01-18T07:19:12.598Z,20.39
2017-01-18T07:20:21.695Z,20.39
2017-01-18T07:21:31.654Z,20.35
2017-01-18T07:22:40.734Z,20.36
2017-01-18T07:23:49.830Z,20.21
2017-01-18T07:24:58.898Z,20.14
2017-01-18T07:26:07.982Z,20.2
2017-01-18T07:27:17.460Z,20.21
2017-01-18T07:28:26.931Z,20.13
2017-01-18T07:29:36.423Z,19.98
2017-01-18T07:30:45.117Z,19.98
2017-01-18T07:31:54.592Z,20.02
2017-01-18T07:33:03.663Z,19.92
2017-01-18T07:34:12.746Z,19.92
2017-01-18T07:35:21.837Z,19.84
2017-01-18T07:36:30.915Z,19.83
2017-01-18T07:37:39.998Z,19.71
2017-01-18T07:38:49.867Z,19.66
2017-01-18T07:39:58.958Z,19.65
2017-01-18T07:41:08.469Z,19.69
2017-01-18T07:42:17.595Z,19.69
2017-01-18T07:43:27.054Z,19.63
2017-01-18T07:44:36.218Z,19.58
2017-01-18T07:45:45.734Z,19.59
2017-01-18T07:46:54.429Z,19.5
2017-01-18T07:48:03.590Z,19.43
2017-01-18T07:49:12.721Z,19.46
2017-01-18T07:50:21.404Z,19.48
2017-01-18T07:51:31.280Z,19.44
2017-01-18T07:52:40.764Z,19.4
2017-01-18T07:53:49.497Z,19.39
2017-01-18T07:54:58.242Z,19.26
2017-01-18T07:56:07.782Z,19.25
2017-01-18T07:57:16.509Z,19.32
2017-01-18T07:58:26.017Z,19.31
2017-01-18T07:59:34.752Z,19.28
2017-01-18T08:00:43.840Z,19.18
2017-01-18T08:01:53.728Z,19.22
2017-01-18T08:03:02.423Z,19.22
2017-01-18T08:04:11.568Z,19.11
2017-01-18T08:05:20.677Z,19.14
2017-01-18T08:06:30.159Z,19.07
2017-01-18T08:07:39.726Z,19
2017-01-18T08:08:48.797Z,19.13
2017-01-18T08:09:58.328Z,19.04
2017-01-18T08:11:07.879Z,18.99
2017-01-18T08:12:16.604Z,19.02
2017-01-18T08:13:26.073Z,18.91
2017-01-18T08:14:35.182Z,18.95
2017-01-18T08:15:44.287Z,18.99
2017-01-18T08:16:53.392Z,18.88
2017-01-18T08:18:02.079Z,18.92
2017-01-18T08:19:10.768Z,18.94
2017-01-18T08:20:19.835Z,18.95
2017-01-18T08:21:29.402Z,18.88
2017-01-18T08:22:38.894Z,18.92
2017-01-18T08:23:48.022Z,18.88
2017-01-18T08:24:57.477Z,18.87
2017-01-18T08:26:06.546Z,18.84
2017-01-18T08:27:15.665Z,18.81
2017-01-18T08:28:25.095Z,18.85
2017-01-18T08:29:34.623Z,18.88
2017-01-18T08:30:44.139Z,18.8
2017-01-18T08:31:53.479Z,18.82
2017-01-18T08:33:02.960Z,18.8
2017-01-18T08:34:12.028Z,18.81
2017-01-18T08:35:21.354Z,18.78
2017-01-18T08:36:30.583Z,18.81
2017-01-18T08:37:39.281Z,18.8
2017-01-18T08:38:48.410Z,18.67
2017-01-18T08:39:57.498Z,18.7
2017-01-18T08:41:06.995Z,18.7
2017-01-18T08:42:16.101Z,18.72
2017-01-18T08:43:25.200Z,18.7
2017-01-18T08:44:34.307Z,18.67
2017-01-18T08:45:43.455Z,18.7
2017-01-18T08:46:52.559Z,18.69
2017-01-18T08:48:01.654Z,18.67
2017-01-18T08:49:10.756Z,18.72
2017-01-18T08:50:19.458Z,18.73
2017-01-18T08:51:28.918Z,18.75
2017-01-18T08:52:37.996Z,18.66
2017-01-18T08:53:47.081Z,18.58
2017-01-18T08:54:56.967Z,18.62
2017-01-18T08:56:06.437Z,18.67
2017-01-18T08:57:15.918Z,18.65
2017-01-18T08:58:24.647Z,18.6
2017-01-18T08:59:33.356Z,18.69
2017-01-18T09:00:42.482Z,18.69
2017-01-18T09:01:51.178Z,18.63
2017-01-18T09:02:59.899Z,18.57
2017-01-18T09:04:08.591Z,18.66
2017-01-18T09:05:17.395Z,18.55
2017-01-18T09:06:26.898Z,18.55
2017-01-18T09:07:36.013Z,18.58
2017-01-18T09:08:45.100Z,18.57
2017-01-18T09:09:53.842Z,18.51
2017-01-18T09:11:03.341Z,18.54
2017-01-18T09:12:12.489Z,18.58
2017-01-18T09:13:21.584Z,18.6
2017-01-18T09:14:31.052Z,18.52
2017-01-18T09:15:40.174Z,18.57
2017-01-18T09:16:49.655Z,18.5
2017-01-18T09:17:58.341Z,18.6
2017-01-18T09:19:07.870Z,18.6
2017-01-18T09:20:16.962Z,18.54
2017-01-18T09:21:26.047Z,18.55
2017-01-18T09:22:34.731Z,18.47
2017-01-18T09:23:44.277Z,18.5
2017-01-18T09:24:53.405Z,18.5
2017-01-18T09:26:02.095Z,18.55
2017-01-18T09:27:11.186Z,18.42
2017-01-18T09:28:20.317Z,18.51
2017-01-18T09:29:29.417Z,18.45
2017-01-18T09:30:38.130Z,18.52
2017-01-18T09:31:47.226Z,18.48
2017-01-18T09:32:55.923Z,18.45
2017-01-18T09:34:05.004Z,18.41
2017-01-18T09:35:14.094Z,18.37
2017-01-18T09:36:23.602Z,18.48
2017-01-18T09:37:32.314Z,18.42
2017-01-18T09:38:41.823Z,18.41
2017-01-18T09:39:51.289Z,18.35
2017-01-18T09:41:00.851Z,18.44
2017-01-18T09:42:11.124Z,18.36
2017-01-18T09:43:19.829Z,18.39
2017-01-18T09:44:28.897Z,18.44
2017-01-18T09:45:37.998Z,18.33
2017-01-18T09:46:47.082Z,18.39
2017-01-18T09:47:55.779Z,18.35
2017-01-18T09:49:05.646Z,18.44
2017-01-18T09:50:14.718Z,18.37
2017-01-18T09:51:23.403Z,18.36
2017-01-18T09:52:32.878Z,18.42
2017-01-18T09:53:42.346Z,18.39
2017-01-18T09:54:51.427Z,18.35
2017-01-18T09:56:00.112Z,18.41
2017-01-18T09:57:09.229Z,18.39
2017-01-18T09:58:18.704Z,18.36
2017-01-18T09:59:28.187Z,18.26
2017-01-18T10:00:37.683Z,18.36
2017-01-18T10:01:46.758Z,18.33
2017-01-18T10:02:55.453Z,18.36
2017-01-18T10:04:04.930Z,18.37
2017-01-18T10:05:14.428Z,18.39
2017-01-18T10:06:23.141Z,18.36
2017-01-18T10:07:32.641Z,18.32
2017-01-18T10:08:42.119Z,18.27
2017-01-18T10:09:51.211Z,18.33
2017-01-18T10:11:00.309Z,18.32
2017-01-18T10:12:09.025Z,18.33
2017-01-18T10:13:17.745Z,18.39
2017-01-18T10:14:26.451Z,18.33
2017-01-18T10:15:35.921Z,18.36
2017-01-18T10:16:45.404Z,18.36
2017-01-18T10:17:54.088Z,18.26
2017-01-18T10:19:03.201Z,18.29
2017-01-18T10:20:12.662Z,18.26
2017-01-18T10:21:22.142Z,18.36
2017-01-18T10:22:31.226Z,18.33
2017-01-18T10:23:40.740Z,18.29
2017-01-18T10:24:50.201Z,18.33
2017-01-18T10:25:59.274Z,18.33
2017-01-18T10:27:07.979Z,18.32
2017-01-18T10:28:17.100Z,18.29
2017-01-18T10:29:25.805Z,18.35
2017-01-18T10:30:34.905Z,18.33
2017-01-18T10:31:43.985Z,18.33
2017-01-18T10:32:52.705Z,18.33
2017-01-18T10:34:02.200Z,18.27
2017-01-18T10:35:12.483Z,18.37
2017-01-18T10:36:21.194Z,18.26
2017-01-18T10:37:29.902Z,18.33
2017-01-18T10:38:39.030Z,18.36
2017-01-18T10:39:48.109Z,18.41
2017-01-18T10:40:56.818Z,18.36
2017-01-18T10:42:06.697Z,18.33
2017-01-18T10:43:15.372Z,18.39
2017-01-18T10:44:24.850Z,18.39
2017-01-18T10:45:34.345Z,18.39
2017-01-18T10:46:43.430Z,18.42
2017-01-18T10:47:52.147Z,18.36
2017-01-18T10:49:00.871Z,18.39
2017-01-18T10:50:09.969Z,18.39
2017-01-18T10:51:19.053Z,18.45
2017-01-18T10:52:28.160Z,18.48
2017-01-18T10:53:37.700Z,18.42
2017-01-18T10:54:47.579Z,18.47
2017-01-18T10:55:57.067Z,18.42
2017-01-18T10:57:05.763Z,18.45
2017-01-18T10:58:14.456Z,18.47
2017-01-18T10:59:23.152Z,18.48
2017-01-18T11:00:32.689Z,18.39
2017-01-18T11:01:41.399Z,18.37
2017-01-18T11:02:50.892Z,18.47
2017-01-18T11:04:00.828Z,18.44
2017-01-18T11:05:10.315Z,18.42
2017-01-18T11:06:19.803Z,18.45
2017-01-18T11:07:29.262Z,18.39
2017-01-18T11:08:38.379Z,18.42
2017-01-18T11:09:47.517Z,18.39
2017-01-18T11:10:56.191Z,18.41
2017-01-18T11:12:05.269Z,18.36
2017-01-18T11:13:13.960Z,18.45
2017-01-18T11:14:23.436Z,18.39
2017-01-18T11:15:32.135Z,18.42
2017-01-18T11:16:41.215Z,18.39
2017-01-18T11:17:50.288Z,18.39
2017-01-18T11:18:59.765Z,18.44
2017-01-18T11:20:08.847Z,18.42
2017-01-18T11:21:17.958Z,18.41
2017-01-18T11:22:27.830Z,18.37
2017-01-18T11:23:37.715Z,18.37
2017-01-18T11:24:46.789Z,18.41
2017-01-18T11:25:55.498Z,18.36
2017-01-18T11:27:04.584Z,18.41
2017-01-18T11:28:13.690Z,18.47
2017-01-18T11:29:22.774Z,18.36
2017-01-18T11:30:31.838Z,18.39
2017-01-18T11:31:40.555Z,18.39
2017-01-18T11:32:49.252Z,18.44
2017-01-18T11:33:58.740Z,18.39
2017-01-18T11:35:08.220Z,18.45
2017-01-18T11:36:18.110Z,18.39
2017-01-18T11:37:27.515Z,18.33
2017-01-18T11:38:36.996Z,18.44
2017-01-18T11:39:46.133Z,18.39
2017-01-18T11:40:54.824Z,18.37
2017-01-18T11:42:04.301Z,18.39
2017-01-18T11:43:13.030Z,18.42
2017-01-18T11:44:22.559Z,18.35
2017-01-18T11:45:32.048Z,18.35
2017-01-18T11:46:41.191Z,18.37
2017-01-18T11:47:49.894Z,18.42
2017-01-18T11:48:58.976Z,18.36
2017-01-18T11:50:08.042Z,18.33
2017-01-18T11:51:16.751Z,18.37
2017-01-18T11:52:25.464Z,18.35
2017-01-18T11:53:34.644Z,18.33
2017-01-18T11:54:43.339Z,18.33
2017-01-18T11:55:52.038Z,18.3
2017-01-18T11:57:02.029Z,18.27
2017-01-18T11:58:10.922Z,18.39
2017-01-18T11:59:19.988Z,18.36
2017-01-18T12:00:29.059Z,18.33
2017-01-18T12:01:37.761Z,18.26
2017-01-18T12:02:46.834Z,18.33
2017-01-18T12:03:55.537Z,18.29
2017-01-18T12:05:05.030Z,18.26
2017-01-18T12:06:13.936Z,18.35
2017-01-18T12:07:23.024Z,18.27
2017-01-18T12:08:31.706Z,18.29
2017-01-18T12:09:40.781Z,18.27
2017-01-18T12:10:50.263Z,18.32
2017-01-18T12:11:59.408Z,18.27
2017-01-18T12:13:08.539Z,18.29
2017-01-18T12:14:17.630Z,18.29
2017-01-18T12:15:26.357Z,18.27
2017-01-18T12:16:35.479Z,18.29
2017-01-18T12:17:44.983Z,18.25
2017-01-18T12:18:54.830Z,18.3
2017-01-18T12:20:04.291Z,18.3
2017-01-18T12:21:13.788Z,18.23
2017-01-18T12:22:22.904Z,18.26
2017-01-18T12:23:32.397Z,18.29
2017-01-18T12:24:41.498Z,18.25
2017-01-18T12:25:50.614Z,18.29
2017-01-18T12:26:59.343Z,18.29
2017-01-18T12:28:08.486Z,18.29
2017-01-18T12:29:17.639Z,18.29
2017-01-18T12:30:26.738Z,18.25
2017-01-18T12:31:35.433Z,18.27
2017-01-18T12:32:44.156Z,18.32
2017-01-18T12:33:53.641Z,18.29
2017-01-18T12:35:03.194Z,18.36
2017-01-18T12:36:12.693Z,18.39
2017-01-18T12:37:21.379Z,18.3
2017-01-18T12:38:30.889Z,18.33
2017-01-18T12:39:39.986Z,18.33
2017-01-18T12:40:49.119Z,18.33
2017-01-18T12:41:58.682Z,18.33
2017-01-18T12:43:07.808Z,18.37
2017-01-18T12:44:16.956Z,18.41
2017-01-18T12:45:25.697Z,18.39
2017-01-18T12:46:34.808Z,18.35
2017-01-18T12:47:44.328Z,18.41
2017-01-18T12:48:53.057Z,18.33
2017-01-18T12:50:02.171Z,18.37
2017-01-18T12:51:11.679Z,18.36
2017-01-18T12:52:20.765Z,18.33
2017-01-18T12:53:29.841Z,18.35
2017-01-18T12:54:39.356Z,18.36
2017-01-18T12:55:48.501Z,18.36
2017-01-18T12:56:57.647Z,18.3
2017-01-18T12:58:07.552Z,18.3
2017-01-18T12:59:16.241Z,18.41
2017-01-18T13:00:25.366Z,18.44
2017-01-18T13:01:34.504Z,18.37
2017-01-18T13:02:43.625Z,18.42
2017-01-18T13:03:53.099Z,18.42
2017-01-18T13:05:02.966Z,18.47
2017-01-18T13:06:12.860Z,18.36
2017-01-18T13:07:22.339Z,18.39
2017-01-18T13:08:31.493Z,18.37
2017-01-18T13:09:40.668Z,18.42
2017-01-18T13:10:50.142Z,18.39
2017-01-18T13:11:59.234Z,18.33
2017-01-18T13:13:07.967Z,18.42
2017-01-18T13:14:17.042Z,18.36
2017-01-18T13:15:26.151Z,18.39
2017-01-18T13:16:35.225Z,18.33
2017-01-18T13:17:44.743Z,18.35
2017-01-18T13:18:53.423Z,18.41
2017-01-18T13:20:02.900Z,18.41
2017-01-18T13:21:11.992Z,18.41
2017-01-18T13:22:52.785Z,18.37
2017-01-18T13:24:02.287Z,18.37
2017-01-18T13:25:10.986Z,18.29
2017-01-18T13:26:20.478Z,18.36
2017-01-18T13:27:29.965Z,18.37
2017-01-18T13:28:39.165Z,18.27
2017-01-18T13:29:48.659Z,18.36
2017-01-18T13:30:57.776Z,18.33
2017-01-18T13:32:06.873Z,18.35
2017-01-18T13:33:15.962Z,18.37
2017-01-18T13:34:26.134Z,18.3
2017-01-18T13:35:35.248Z,18.41
2017-01-18T13:36:44.758Z,18.33
2017-01-18T13:37:53.456Z,18.37
2017-01-18T13:39:02.968Z,18.35
2017-01-18T13:40:12.622Z,18.33
2017-01-18T13:41:22.118Z,18.37
2017-01-18T13:42:30.814Z,18.32
2017-01-18T13:43:39.913Z,18.29
2017-01-18T13:44:48.692Z,18.32
2017-01-18T13:45:57.861Z,18.3
2017-01-18T13:47:07.769Z,18.35
2017-01-18T13:48:16.853Z,18.26
2017-01-18T13:49:25.625Z,18.33
2017-01-18T13:50:34.715Z,18.36
2017-01-18T13:51:43.762Z,18.33
2017-01-18T13:52:52.826Z,18.33
2017-01-18T13:54:01.904Z,18.37
2017-01-18T13:55:11.399Z,18.33
2017-01-18T13:56:21.681Z,18.32
2017-01-18T13:57:30.919Z,18.33
2017-01-18T13:58:40.012Z,18.26
2017-01-18T13:59:48.745Z,18.33
2017-01-18T14:00:57.857Z,18.3
2017-01-18T14:02:07.545Z,18.29
2017-01-18T14:03:16.244Z,18.29
2017-01-18T14:04:25.324Z,18.32
2017-01-18T14:05:34.038Z,18.33
2017-01-18T14:06:43.138Z,18.3
2017-01-18T14:07:52.271Z,18.29
2017-01-18T14:09:01.667Z,18.25
2017-01-18T14:10:10.755Z,18.33
2017-01-18T14:11:20.214Z,18.32
2017-01-18T14:12:28.941Z,18.33
2017-01-18T14:13:38.009Z,18.33
2017-01-18T14:14:47.409Z,18.27
2017-01-18T14:15:56.508Z,18.32
2017-01-18T14:17:05.228Z,18.29
2017-01-18T14:18:14.336Z,18.29
2017-01-18T14:19:23.504Z,18.3
2017-01-18T14:20:32.618Z,18.32
2017-01-18T14:21:42.498Z,18.3
2017-01-18T14:22:51.590Z,18.26
2017-01-18T14:24:01.459Z,18.33
2017-01-18T14:25:10.938Z,18.3
2017-01-18T14:26:19.800Z,18.27
2017-01-18T14:27:29.672Z,18.23
2017-01-18T14:28:39.547Z,18.32
2017-01-18T14:29:48.647Z,18.27
2017-01-18T14:30:57.345Z,18.29
2017-01-18T14:32:06.205Z,18.32
2017-01-18T14:33:14.882Z,18.29
2017-01-18T14:34:23.591Z,18.23
2017-01-18T14:35:32.702Z,18.26
2017-01-18T14:36:42.215Z,18.25
2017-01-18T14:37:51.266Z,18.15
2017-01-18T14:39:00.758Z,18.32
2017-01-18T14:40:10.220Z,18.23
2017-01-18T14:41:19.705Z,18.15
2017-01-18T14:42:28.832Z,18.23
2017-01-18T14:43:37.680Z,18.23
2017-01-18T14:44:47.176Z,18.2
2017-01-18T14:45:56.280Z,18.21
2017-01-18T14:47:04.973Z,18.2
2017-01-18T14:48:14.443Z,18.21
2017-01-18T14:49:24.446Z,18.15
2017-01-18T14:50:33.139Z,18.18
2017-01-18T14:51:42.234Z,18.18
2017-01-18T14:52:50.944Z,18.18